Temp: 18.8°C   Baro: 1015.9mb
  Wind: 4.9mph   Dir: SW (231°)
  Rain: 0.6mm (0.0mm/hr)
  Solar: 598W/m2  Hum: 64%
 
Bath Spa Weather Station Historical Data
Daily Summary for July 31, 2020 Units:  Metric    English   Both
Daily Weekly Monthly Yearly Custom
  High: Low: Average:
Temperature: 31.4 °C 16.4 °C 22.2 °C
Dew Point: 20.2 °C 12.1 °C 15.3 °C
Humidity: 85% 44% 67%
Wind Speed: 17.7km/h 0km/h 7.4km/h
Wind Gust: 29km/h - -
Wind- - SSW
Pressure: 1014.1 hPa 1008 hPa -
Precipitation: 0 mm    
Historical Graphs
 
 
Tabular Data for July 31, 2020
Time Temperature Dew Point Pressure Wind Wind Speed Wind Gust Humidity Rainfall Rate (Hourly) solar
00:04 19.2 °C 12.7 °C 1014.1 hPa ESE 2.7 km/h 8 km/h 66% 0 mm 0 W/m2
00:09 19.2 °C 12.7 °C 1013.8 hPa SE 1.9 km/h 6.4 km/h 66% 0 mm 0 W/m2
00:14 19.2 °C 12.7 °C 1013.8 hPa SE 1 km/h 6.4 km/h 66% 0 mm 0 W/m2
00:19 19.1 °C 12.7 °C 1013.8 hPa ESE 0.6 km/h 6.4 km/h 66.4% 0 mm 0 W/m2
00:24 19.1 °C 12.8 °C 1013.8 hPa Calm   6.4 km/h 67% 0 mm 0 W/m2
00:29 18.8 °C 12.8 °C 1013.8 hPa SE 0.6 km/h 4.8 km/h 67.8% 0 mm 0 W/m2
00:34 18.6 °C 12.7 °C 1013.8 hPa SE 0.6 km/h 4.8 km/h 68.6% 0 mm 0 W/m2
00:39 18.3 °C 12.7 °C 1013.8 hPa Calm   1.6 km/h 70% 0 mm 0 W/m2
00:44 17.9 °C 12.6 °C 1013.8 hPa Calm     71% 0 mm 0 W/m2
00:49 17.7 °C 12.6 °C 1013.8 hPa Calm   1.6 km/h 72% 0 mm 0 W/m2
00:54 17.6 °C 12.4 °C 1013.8 hPa Calm     72% 0 mm 0 W/m2
00:59 17.3 °C 12.3 °C 1013.8 hPa Calm   1.6 km/h 72.6% 0 mm 0 W/m2
01:04 17.3 °C 12.3 °C 1013.8 hPa Calm     73% 0 mm 0 W/m2
01:09 17.2 °C 12.3 °C 1013.4 hPa Calm     73% 0 mm 0 W/m2
01:14 17.1 °C 12.2 °C 1013.4 hPa Calm     73% 0 mm 0 W/m2
01:19 17 °C 12.1 °C 1013.4 hPa Calm     73% 0 mm 0 W/m2
01:24 16.9 °C 12.1 °C 1013.4 hPa ESE 0.6 km/h 8 km/h 73.4% 0 mm 0 W/m2
01:29 17.1 °C 12.2 °C 1013.4 hPa SE 0.8 km/h 6.4 km/h 73% 0 mm 0 W/m2
01:34 17.2 °C 12.3 °C 1013.4 hPa Calm   1.6 km/h 73% 0 mm 0 W/m2
01:39 17.2 °C 12.2 °C 1013.1 hPa SE 0.6 km/h 6.4 km/h 72.8% 0 mm 0 W/m2
01:44 17.3 °C 12.3 °C 1013.1 hPa SE 1.3 km/h 8 km/h 72.2% 0 mm 0 W/m2
01:49 17.6 °C 12.3 °C 1013.1 hPa ESE 4.5 km/h 9.7 km/h 71.2% 0 mm 0 W/m2
01:54 17.8 °C 12.4 °C 1013.1 hPa SE 2.9 km/h 6.4 km/h 70.4% 0 mm 0 W/m2
01:59 18.2 °C 12.3 °C 1012.8 hPa ESE 3.9 km/h 8 km/h 69% 0 mm 0 W/m2
02:04 18.3 °C 12.3 °C 1012.8 hPa ESE 3.1 km/h 8 km/h 68% 0 mm 0 W/m2
02:09 18.4 °C 12.4 °C 1012.8 hPa SE 4.8 km/h 9.7 km/h 67.8% 0 mm 0 W/m2
02:14 18.6 °C 12.3 °C 1012.8 hPa SE 3.9 km/h 9.7 km/h 67% 0 mm 0 W/m2
02:19 18.6 °C 12.4 °C 1012.8 hPa SE 4.5 km/h 12.9 km/h 67% 0 mm 0 W/m2
02:24 18.6 °C 12.3 °C 1012.8 hPa SE 6 km/h 12.9 km/h 67% 0 mm 0 W/m2
02:29 18.6 °C 12.3 °C 1012.8 hPa SE 2.6 km/h 9.7 km/h 67% 0 mm 0 W/m2
02:34 18.5 °C 12.3 °C 1012.4 hPa SE 4 km/h 11.3 km/h 67% 0 mm 0 W/m2
02:39 18.4 °C 12.3 °C 1012.4 hPa SSE 5.1 km/h 11.3 km/h 67% 0 mm 0 W/m2
02:44 18.4 °C 12.2 °C 1012.4 hPa SE 5.1 km/h 11.3 km/h 67% 0 mm 0 W/m2
02:49 18.6 °C 12.3 °C 1012.1 hPa SE 5.8 km/h 14.5 km/h 67% 0 mm 0 W/m2
02:54 18.6 °C 12.3 °C 1012.1 hPa SSE 3.7 km/h 11.3 km/h 67% 0 mm 0 W/m2
02:59 18.5 °C 12.3 °C 1012.1 hPa SE 4.3 km/h 11.3 km/h 67% 0 mm 0 W/m2
03:04 18.4 °C 12.2 °C 1012.1 hPa SE 2.6 km/h 11.3 km/h 67% 0 mm 0 W/m2
03:09 18.5 °C 12.3 °C 1011.7 hPa ESE 4.3 km/h 11.3 km/h 67% 0 mm 0 W/m2
03:14 18.5 °C 12.3 °C 1011.7 hPa SE 2.1 km/h 14.5 km/h 67% 0 mm 0 W/m2
03:19 18.5 °C 12.3 °C 1011.7 hPa SE 4 km/h 14.5 km/h 67% 0 mm 0 W/m2
03:24 18.6 °C 12.4 °C 1011.7 hPa SE 6.6 km/h 11.3 km/h 67% 0 mm 0 W/m2
03:29 18.6 °C 12.4 °C 1011.7 hPa SE 5.3 km/h 9.7 km/h 67% 0 mm 0 W/m2
03:34 18.6 °C 12.4 °C 1011.7 hPa East 7.4 km/h 12.9 km/h 67% 0 mm 0 W/m2
03:39 18.7 °C 12.4 °C 1011.4 hPa ESE 6.6 km/h 12.9 km/h 67% 0 mm 0 W/m2
03:44 18.6 °C 12.4 °C 1011.4 hPa ESE 4.7 km/h 11.3 km/h 67% 0 mm 0 W/m2
03:49 18.6 °C 12.4 °C 1011.4 hPa East 2.1 km/h 9.7 km/h 67% 0 mm 0 W/m2
03:54 18.5 °C 12.5 °C 1011.4 hPa ESE 3.2 km/h 12.9 km/h 67.8% 0 mm 0 W/m2
03:59 18.5 °C 12.5 °C 1011.4 hPa ESE 5.3 km/h 12.9 km/h 68% 0 mm 0 W/m2
04:04 18.4 °C 12.4 °C 1011.4 hPa ESE 5.5 km/h 12.9 km/h 68% 0 mm 0 W/m2
04:09 18.4 °C 12.4 °C 1011.1 hPa ESE 6.6 km/h 14.5 km/h 68% 0 mm 0 W/m2
04:14 18.4 °C 12.4 °C 1011.1 hPa East 7.2 km/h 17.7 km/h 68% 0 mm 0 W/m2
04:19 18.4 °C 12.4 °C 1011.1 hPa ESE 7.2 km/h 16.1 km/h 68% 0 mm 0 W/m2
04:24 18.4 °C 12.4 °C 1011.1 hPa ESE 5.5 km/h 14.5 km/h 68% 0 mm 0 W/m2
04:29 18.4 °C 12.4 °C 1011.1 hPa ESE 6 km/h 17.7 km/h 68% 0 mm 0 W/m2
04:34 18.4 °C 12.4 °C 1011.1 hPa East 1.6 km/h 12.9 km/h 68% 0 mm 0 W/m2
04:39 18.3 °C 12.5 °C 1011.1 hPa ESE 2.3 km/h 9.7 km/h 69% 0 mm 0 W/m2
04:44 18.3 °C 12.5 °C 1010.7 hPa East 3.9 km/h 11.3 km/h 69% 0 mm 0 W/m2
04:49 18.3 °C 12.5 °C 1010.7 hPa ESE 4.8 km/h 11.3 km/h 69% 0 mm 0 W/m2
04:53 18.4 °C 12.6 °C 1010.7 hPa East 7.6 km/h 19.3 km/h 69% 0 mm 0 W/m2
04:59 18.4 °C 12.6 °C 1010.7 hPa East 3.2 km/h 19.3 km/h 69% 0 mm 0 W/m2
05:04 18.5 °C 12.7 °C 1010.7 hPa ESE 5.1 km/h 11.3 km/h 69% 0 mm 0 W/m2
05:09 18.5 °C 12.7 °C 1010.7 hPa ESE 5.1 km/h 12.9 km/h 69% 0 mm 0 W/m2
05:14 18.6 °C 12.7 °C 1010.7 hPa East 8 km/h 16.1 km/h 68.4% 0 mm 0 W/m2
05:19 18.6 °C 12.7 °C 1010.7 hPa ESE 4 km/h 11.3 km/h 68.8% 0 mm 0 W/m2
05:24 18.6 °C 12.7 °C 1010.4 hPa ESE 4.8 km/h 11.3 km/h 68.8% 0 mm 0 W/m2
05:29 18.6 °C 12.7 °C 1010.4 hPa SE 5.8 km/h 12.9 km/h 68.4% 0 mm 0 W/m2
05:34 18.5 °C 12.6 °C 1010.4 hPa ESE 4.2 km/h 11.3 km/h 68.6% 0 mm 0 W/m2
05:39 18.4 °C 12.6 °C 1010.4 hPa ESE 8.4 km/h 14.5 km/h 69% 0 mm 5 W/m2
05:44 18.4 °C 12.6 °C 1010.4 hPa ESE 5.5 km/h 11.3 km/h 69% 0 mm 7 W/m2
05:49 18.4 °C 12.6 °C 1010.4 hPa ESE 3.2 km/h 11.3 km/h 69% 0 mm 11 W/m2
05:54 18.3 °C 12.6 °C 1010.4 hPa ESE 5.1 km/h 16.1 km/h 69% 0 mm 12 W/m2
05:59 18.3 °C 12.6 °C 1010.4 hPa ESE 4.8 km/h 14.5 km/h 69% 0 mm 14 W/m2
06:04 18.3 °C 12.5 °C 1010.4 hPa ESE 5.6 km/h 9.7 km/h 69% 0 mm 16 W/m2
06:09 18.3 °C 12.5 °C 1010.4 hPa East 10 km/h 14.5 km/h 69% 0 mm 19 W/m2
06:14 18.4 °C 12.6 °C 1010.4 hPa East 5.3 km/h 14.5 km/h 69% 0 mm 21 W/m2
06:19 18.4 °C 12.6 °C 1010.4 hPa East 6.6 km/h 12.9 km/h 69% 0 mm 23 W/m2
06:24 18.3 °C 12.6 °C 1010.4 hPa East 3.2 km/h 11.3 km/h 69% 0 mm 25 W/m2
06:29 18.3 °C 12.5 °C 1010.4 hPa East 4 km/h 11.3 km/h 69% 0 mm 26 W/m2
06:34 18.3 °C 12.7 °C 1010.4 hPa East 1.6 km/h 9.7 km/h 69.8% 0 mm 28 W/m2
06:39 18.3 °C 12.7 °C 1010 hPa East 1 km/h 11.3 km/h 70% 0 mm 30 W/m2
06:44 18.3 °C 12.7 °C 1010 hPa East 1.6 km/h 9.7 km/h 70% 0 mm 32 W/m2
06:49 18.3 °C 12.7 °C 1010 hPa ESE 2.6 km/h 11.3 km/h 70% 0 mm 33 W/m2
06:54 18.4 °C 12.8 °C 1010 hPa ESE 2.7 km/h 12.9 km/h 70% 0 mm 37 W/m2
06:59 18.6 °C 12.8 °C 1010 hPa East 2.6 km/h 12.9 km/h 69.4% 0 mm 42 W/m2
07:04 18.7 °C 13 °C 1010 hPa ESE 2.1 km/h 8 km/h 69.4% 0 mm 51 W/m2
07:09 18.9 °C 13.1 °C 1009.7 hPa ESE 6.4 km/h 17.7 km/h 69% 0 mm 63 W/m2
07:14 19.2 °C 13.3 °C 1009.7 hPa ESE 4.8 km/h 14.5 km/h 68.8% 0 mm 74 W/m2
07:19 19.2 °C 13.3 °C 1009.7 hPa ESE 4 km/h 11.3 km/h 68.4% 0 mm 88 W/m2
07:24 19.4 °C 13.3 °C 1009.7 hPa ESE 6.8 km/h 14.5 km/h 68% 0 mm 104 W/m2
07:29 19.6 °C 13.4 °C 1009.7 hPa ESE 4.3 km/h 12.9 km/h 67.8% 0 mm 118 W/m2
07:34 19.8 °C 13.5 °C 1009.7 hPa SE 4.7 km/h 12.9 km/h 67.2% 0 mm 134 W/m2
07:39 19.9 °C 13.6 °C 1009.7 hPa ESE 7.1 km/h 14.5 km/h 67% 0 mm 151 W/m2
07:44 20.2 °C 13.8 °C 1009.7 hPa ESE 8.5 km/h 16.1 km/h 67% 0 mm 165 W/m2
07:49 20.3 °C 13.8 °C 1009.7 hPa East 7.9 km/h 16.1 km/h 66.4% 0 mm 179 W/m2
07:54 20.4 °C 13.9 °C 1009.7 hPa East 6.6 km/h 16.1 km/h 66.2% 0 mm 195 W/m2
07:59 20.7 °C 14.1 °C 1009.7 hPa ESE 5.3 km/h 14.5 km/h 66% 0 mm 211 W/m2
08:04 20.9 °C 14.1 °C 1009.7 hPa ESE 6.3 km/h 12.9 km/h 65% 0 mm 227 W/m2
08:09 21.2 °C 14.3 °C 1009.7 hPa ESE 5.1 km/h 12.9 km/h 65% 0 mm 243 W/m2
08:14 21.3 °C 14.3 °C 1009.7 hPa ESE 7.6 km/h 12.9 km/h 64.2% 0 mm 258 W/m2
08:19 21.6 °C 14.4 °C 1009.7 hPa SE 10.9 km/h 17.7 km/h 63.6% 0 mm 271 W/m2
08:24 21.8 °C 14.4 °C 1009.7 hPa ESE 7.7 km/h 16.1 km/h 62.8% 0 mm 283 W/m2
08:29 22 °C 14.4 °C 1009.7 hPa ESE 11.7 km/h 25.7 km/h 62% 0 mm 301 W/m2
08:34 22.2 °C 14.4 °C 1009.7 hPa ESE 12.1 km/h 25.7 km/h 61.2% 0 mm 318 W/m2
08:39 22.4 °C 14.4 °C 1009.7 hPa SE 11.3 km/h 22.5 km/h 60.6% 0 mm 336 W/m2
08:44 22.6 °C 14.5 °C 1009.7 hPa SE 10.5 km/h 20.9 km/h 60.2% 0 mm 350 W/m2
08:49 22.8 °C 14.6 °C 1009.7 hPa SE 9.8 km/h 24.1 km/h 60% 0 mm 366 W/m2
08:54 23 °C 14.8 °C 1009.4 hPa SE 7.7 km/h 19.3 km/h 60% 0 mm 378 W/m2
08:59 23.2 °C 14.9 °C 1009.7 hPa ESE 6.3 km/h 14.5 km/h 59.6% 0 mm 390 W/m2
09:04 23.4 °C 14.9 °C 1009.7 hPa ESE 7.6 km/h 17.7 km/h 59% 0 mm 403 W/m2
09:09 23.7 °C 15.1 °C 1009.7 hPa SE 7.1 km/h 24.1 km/h 58.6% 0 mm 415 W/m2
09:14 23.9 °C 15.1 °C 1009.7 hPa SE 9.3 km/h 17.7 km/h 58% 0 mm 429 W/m2
09:19 24 °C 15.3 °C 1009.7 hPa SE 7.4 km/h 14.5 km/h 58.2% 0 mm 443 W/m2
09:24 24.3 °C 15.5 °C 1009.7 hPa East 7.1 km/h 16.1 km/h 58% 0 mm 454 W/m2
09:29 24.7 °C 15.7 °C 1009.4 hPa ESE 6.8 km/h 17.7 km/h 57.4% 0 mm 468 W/m2
09:34 24.9 °C 15.7 °C 1009.4 hPa SE 7.6 km/h 16.1 km/h 56.8% 0 mm 475 W/m2
09:39 24.9 °C 15.6 °C 1009.4 hPa SSE 5.1 km/h 14.5 km/h 56.2% 0 mm 487 W/m2
09:43 25.1 °C 15.6 °C 1009.4 hPa SE 7.6 km/h 14.5 km/h 55.8% 0 mm 497 W/m2
09:49 25.2 °C 15.3 °C 1009.4 hPa SE 8 km/h 17.7 km/h 54.5% 0 mm 508 W/m2
09:54 25.4 °C 15.7 °C 1009.4 hPa ESE 8.7 km/h 16.1 km/h 55% 0 mm 519 W/m2
09:59 25.7 °C 15.8 °C 1009.4 hPa SE 10.3 km/h 17.7 km/h 54.4% 0 mm 531 W/m2
10:04 26.1 °C 16 °C 1009.4 hPa ESE 11.9 km/h 17.7 km/h 53.8% 0 mm 541 W/m2
10:09 26.2 °C 16.2 °C 1009.4 hPa SSE 3.1 km/h 17.7 km/h 53.8% 0 mm 552 W/m2
10:14 26.2 °C 16.1 °C 1009.4 hPa SSE 4.3 km/h 14.5 km/h 53.8% 0 mm 563 W/m2
10:19 26.4 °C 16.4 °C 1009.4 hPa SE 5.5 km/h 16.1 km/h 54.2% 0 mm 573 W/m2
10:24 26.9 °C 16.6 °C 1009 hPa SSE 3.9 km/h 11.3 km/h 53% 0 mm 584 W/m2
10:29 26.9 °C 16.5 °C 1009 hPa South 4.2 km/h 11.3 km/h 53% 0 mm 591 W/m2
10:34 27.1 °C 16.6 °C 1009 hPa SE 5.1 km/h 14.5 km/h 52.6% 0 mm 599 W/m2
10:39 27.5 °C 16.6 °C 1009 hPa SE 7.1 km/h 17.7 km/h 51.4% 0 mm 610 W/m2
10:44 27.7 °C 16.8 °C 1008.7 hPa SE 9.2 km/h 16.1 km/h 51.4% 0 mm 619 W/m2
10:49 27.8 °C 16.7 °C 1009 hPa SE 6 km/h 16.1 km/h 51% 0 mm 626 W/m2
10:53 28.2 °C 16.9 °C 1008.7 hPa ESE 6.8 km/h 14.5 km/h 50.5% 0 mm 636 W/m2
10:59 28.2 °C 16.9 °C 1008.7 hPa SE 7.6 km/h 14.5 km/h 50.2% 0 mm 645 W/m2
11:04 28.3 °C 16.9 °C 1008.7 hPa SE 3.9 km/h 12.9 km/h 50% 0 mm 656 W/m2
11:09 28.4 °C 16.9 °C 1008.7 hPa SSE 6.4 km/h 12.9 km/h 49.6% 0 mm 689 W/m2
11:14 28.3 °C 16.7 °C 1008.7 hPa SSW 5.3 km/h 12.9 km/h 49% 0 mm 635 W/m2
11:19 28.3 °C 16.6 °C 1008.7 hPa South 6 km/h 16.1 km/h 49% 0 mm 795 W/m2
11:29 28.6 °C 16.6 °C 1008.7 hPa South 7.2 km/h 16.1 km/h 48.4% 0 mm 795 W/m2
11:34 28.8 °C 16.7 °C 1008.4 hPa SSE 5.1 km/h 12.9 km/h 48% 0 mm 846 W/m2
11:44 29.3 °C 16.9 °C 1008.4 hPa South 5.6 km/h 17.7 km/h 47.3% 0 mm 853 W/m2
11:49 29.3 °C 16.7 °C 1008.4 hPa SSE 9 km/h 17.7 km/h 46.6% 0 mm 812 W/m2
11:54 29.1 °C 16.9 °C 1008.4 hPa South 14.5 km/h 20.9 km/h 47.6% 0 mm 756 W/m2
11:59 29.2 °C 16.9 °C 1008.4 hPa South 10 km/h 17.7 km/h 47.6% 0 mm 722 W/m2
12:04 29.3 °C 16.9 °C 1008.4 hPa South 11.4 km/h 17.7 km/h 47.2% 0 mm 721 W/m2
12:09 29.6 °C 16.8 °C 1008.4 hPa SSE 10 km/h 19.3 km/h 46.4% 0 mm 728 W/m2
12:14 29.7 °C 17 °C 1008.4 hPa South 6.6 km/h 16.1 km/h 46.4% 0 mm 733 W/m2
12:19 30 °C 17.1 °C 1008.4 hPa SSE 8.9 km/h 12.9 km/h 45.8% 0 mm 740 W/m2
12:24 30.1 °C 17 °C 1008.4 hPa SSE 6 km/h 14.5 km/h 45.6% 0 mm 742 W/m2
12:29 30.2 °C 17 °C 1008.4 hPa SSW 9.7 km/h 20.9 km/h 45.2% 0 mm 749 W/m2
12:34 30.6 °C 17 °C 1008.4 hPa SW 8.2 km/h 12.9 km/h 44.2% 0 mm 749 W/m2
12:38 30.7 °C 17.4 °C 1008.4 hPa SSW 9.7 km/h 16.1 km/h 45% 0 mm 752 W/m2
12:44 30.8 °C 17.1 °C 1008.4 hPa South 4 km/h 14.5 km/h 44% 0 mm 756 W/m2
12:49 30.6 °C 17 °C 1008.4 hPa SSE 7.2 km/h 19.3 km/h 44.2% 0 mm 758 W/m2
12:54 30.3 °C 17 °C 1008.4 hPa South 7.7 km/h 17.7 km/h 45% 0 mm 763 W/m2
12:59 30.6 °C 17.4 °C 1008.4 hPa South 4.8 km/h 11.3 km/h 45.2% 0 mm 761 W/m2
13:04 30.9 °C 17.3 °C 1008.4 hPa South 10.1 km/h 17.7 km/h 44.2% 0 mm 766 W/m2
13:09 30.1 °C 17 °C 1008.4 hPa South 9 km/h 16.1 km/h 45.4% 0 mm 770 W/m2
13:14 30.2 °C 17.2 °C 1008.4 hPa South 5.8 km/h 12.9 km/h 45.8% 0 mm 770 W/m2
13:19 30.6 °C 17.5 °C 1008.4 hPa SSE 6.4 km/h 11.3 km/h 45.6% 0 mm 772 W/m2
13:29 31 °C 17.9 °C 1008.4 hPa WSW 7.7 km/h 12.9 km/h 45.6% 0 mm 770 W/m2
13:34 30.9 °C 17.8 °C 1008.4 hPa South 8.2 km/h 17.7 km/h 45.8% 0 mm 770 W/m2
13:39 30.7 °C 18.2 °C 1008.4 hPa WSW 8.2 km/h 14.5 km/h 47.2% 0 mm 770 W/m2
13:44 30.8 °C 18.3 °C 1008.4 hPa West 9.7 km/h 19.3 km/h 47.2% 0 mm 765 W/m2
13:49 30.9 °C 18.6 °C 1008.4 hPa WSW 7.2 km/h 16.1 km/h 47.8% 0 mm 766 W/m2
13:54 30.9 °C 18.6 °C 1008.4 hPa West 11.3 km/h 16.1 km/h 48% 0 mm 763 W/m2
13:59 30.8 °C 18.6 °C 1008 hPa WSW 6.1 km/h 16.1 km/h 48.4% 0 mm 763 W/m2
14:09 31 °C 19 °C 1008.4 hPa West 8.4 km/h 16.1 km/h 49% 0 mm 758 W/m2
14:14 30.9 °C 19.1 °C 1008.4 hPa WNW 9.2 km/h 17.7 km/h 49.3% 0 mm 752 W/m2
14:19 30.9 °C 19.3 °C 1008.4 hPa WSW 3.2 km/h 12.9 km/h 50.2% 0 mm 749 W/m2
14:24 31.2 °C 19.3 °C 1008.4 hPa SW 6 km/h 14.5 km/h 49.2% 0 mm 768 W/m2
14:29 31.4 °C 19.6 °C 1008 hPa West 5.1 km/h 14.5 km/h 49.6% 0 mm 805 W/m2
14:34 31.1 °C 19.4 °C 1008 hPa WSW 8 km/h 16.1 km/h 49.8% 0 mm 707 W/m2
14:39 31 °C 19.6 °C 1008 hPa WSW 5.5 km/h 12.9 km/h 50.6% 0 mm 221 W/m2
14:44 31.2 °C 19.7 °C 1008 hPa WSW 6.4 km/h 16.1 km/h 50.4% 0 mm 543 W/m2
14:49 31.3 °C 19.7 °C 1008 hPa SW 6.6 km/h 14.5 km/h 50.2% 0 mm 810 W/m2
14:54 31.1 °C 19.5 °C 1008 hPa WSW 11.4 km/h 19.3 km/h 50.2% 0 mm 831 W/m2
14:59 30.8 °C 19.7 °C 1008 hPa West 11.6 km/h 20.9 km/h 51.8% 0 mm 789 W/m2
15:04 30.9 °C 19.7 °C 1008 hPa West 10 km/h 17.7 km/h 51.4% 0 mm 752 W/m2
15:09 31.3 °C 20.2 °C 1008 hPa WSW 5.6 km/h 17.7 km/h 51.8% 0 mm 703 W/m2
15:14 31.3 °C 19.8 °C 1008.4 hPa SW 13.2 km/h 22.5 km/h 50.4% 0 mm 731 W/m2
15:19 30.7 °C 19.7 °C 1008.4 hPa West 10.3 km/h 19.3 km/h 52% 0 mm 777 W/m2
15:24 30.8 °C 19.7 °C 1008.4 hPa West 13.4 km/h 19.3 km/h 51.6% 0 mm 777 W/m2
15:29 30.3 °C 19.8 °C 1008.4 hPa WNW 12.9 km/h 25.7 km/h 53.6% 0 mm 476 W/m2
15:34 29.2 °C 19.6 °C 1008.4 hPa West 10.8 km/h 20.9 km/h 56.4% 0 mm 278 W/m2
15:39 28.6 °C 19.6 °C 1008.7 hPa WNW 12.6 km/h 25.7 km/h 58.4% 0 mm 287 W/m2
15:44 28 °C 19.4 °C 1008.7 hPa WNW 12.2 km/h 25.7 km/h 59.6% 0 mm 279 W/m2
15:49 27.3 °C 19.2 °C 1009 hPa WNW 15.4 km/h 25.7 km/h 61.4% 0 mm 318 W/m2
15:54 26.9 °C 19.3 °C 1009 hPa WNW 11.6 km/h 25.7 km/h 63% 0 mm 378 W/m2
15:58 26.4 °C 18.8 °C 1009 hPa NW 17.7 km/h 25.7 km/h 63.3% 0 mm 427 W/m2
16:04 25.7 °C 18.1 °C 1009 hPa NNW 17.7 km/h 24.1 km/h 63% 0 mm 408 W/m2
16:09 25.7 °C 18.2 °C 1009.4 hPa NW 7.6 km/h 24.1 km/h 63.4% 0 mm 380 W/m2
16:14 25.7 °C 18.4 °C 1009.4 hPa WNW 16.4 km/h 29 km/h 64.4% 0 mm 464 W/m2
16:19 25.2 °C 18.4 °C 1009.4 hPa WNW 13.5 km/h 29 km/h 66.3% 0 mm 373 W/m2
16:24 25 °C 18.4 °C 1009.4 hPa NW 12.6 km/h 19.3 km/h 67% 0 mm 271 W/m2
16:29 24.8 °C 18.6 °C 1009.7 hPa West 9.5 km/h 24.1 km/h 68% 0 mm 313 W/m2
16:34 24.7 °C 18.4 °C 1009.7 hPa West 14 km/h 24.1 km/h 68% 0 mm 301 W/m2
16:39 24.4 °C 18.2 °C 1009.7 hPa WNW 15.4 km/h 24.1 km/h 68.2% 0 mm 262 W/m2
16:44 24.2 °C 18 °C 1009.7 hPa WNW 11.9 km/h 20.9 km/h 68.6% 0 mm 204 W/m2
16:49 24.1 °C 18.1 °C 1009.7 hPa West 11.3 km/h 17.7 km/h 69% 0 mm 220 W/m2
16:54 23.8 °C 17.7 °C 1009.7 hPa West 12.1 km/h 24.1 km/h 68.8% 0 mm 216 W/m2
16:59 23.4 °C 17.4 °C 1009.7 hPa WNW 10.6 km/h 25.7 km/h 69% 0 mm 172 W/m2
17:04 23.2 °C 17.2 °C 1009.7 hPa West 13.2 km/h 19.3 km/h 69% 0 mm 113 W/m2
17:09 23.1 °C 16.9 °C 1009.7 hPa WNW 10.5 km/h 20.9 km/h 68.4% 0 mm 123 W/m2
17:14 22.9 °C 16.8 °C 1009.7 hPa WNW 10.3 km/h 17.7 km/h 68.6% 0 mm 156 W/m2
17:19 22.9 °C 16.9 °C 1009.7 hPa WNW 11.3 km/h 24.1 km/h 69% 0 mm 183 W/m2
17:24 22.8 °C 16.9 °C 1010 hPa WNW 12.9 km/h 25.7 km/h 69.6% 0 mm 178 W/m2
17:29 22.7 °C 17.1 °C 1010 hPa WNW 10.6 km/h 19.3 km/h 70.6% 0 mm 176 W/m2
17:34 22.6 °C 17.2 °C 1010 hPa WNW 12.6 km/h 20.9 km/h 71.3% 0 mm 176 W/m2
17:39 22.6 °C 17.3 °C 1010 hPa WNW 7.9 km/h 25.7 km/h 72.2% 0 mm 172 W/m2
17:44 22.4 °C 17.3 °C 1010 hPa WNW 11.9 km/h 20.9 km/h 73% 0 mm 149 W/m2
17:49 22.4 °C 17.4 °C 1010 hPa WNW 12.6 km/h 19.3 km/h 73.6% 0 mm 113 W/m2
17:54 22.3 °C 17.4 °C 1010.4 hPa WNW 11.9 km/h 20.9 km/h 74% 0 mm 172 W/m2
17:59 22.3 °C 17.4 °C 1010 hPa WNW 12.6 km/h 19.3 km/h 74% 0 mm 193 W/m2
18:04 22.3 °C 17.4 °C 1010 hPa WNW 9 km/h 20.9 km/h 74% 0 mm 195 W/m2
18:08 22.3 °C 17.4 °C 1010 hPa West 11.1 km/h 20.9 km/h 74.3% 0 mm 207 W/m2
18:14 22.1 °C 17.5 °C 1010.4 hPa WNW 13.7 km/h 19.3 km/h 75% 0 mm 253 W/m2
18:19 22.1 °C 17.4 °C 1010.4 hPa West 11.3 km/h 19.3 km/h 75% 0 mm 209 W/m2
18:24 22.2 °C 17.6 °C 1010.4 hPa WNW 7.4 km/h 12.9 km/h 75% 0 mm 186 W/m2
18:29 22.1 °C 17.5 °C 1010.4 hPa West 9.5 km/h 19.3 km/h 75% 0 mm 135 W/m2
18:34 22.1 °C 17.5 °C 1010.4 hPa WNW 5.6 km/h 17.7 km/h 75% 0 mm 120 W/m2
18:39 22.1 °C 17.5 °C 1010.7 hPa West 10.9 km/h 17.7 km/h 75% 0 mm 120 W/m2
18:44 21.9 °C 17.4 °C 1010.7 hPa West 10 km/h 20.9 km/h 75.8% 0 mm 120 W/m2
18:49 21.7 °C 17.3 °C 1010.7 hPa West 9.8 km/h 16.1 km/h 76% 0 mm 118 W/m2
18:54 21.6 °C 17.3 °C 1010.7 hPa West 7.9 km/h 16.1 km/h 76.8% 0 mm 109 W/m2
18:59 21.4 °C 17.4 °C 1010.7 hPa WNW 7.1 km/h 16.1 km/h 77.6% 0 mm 104 W/m2
19:04 21.3 °C 17.4 °C 1010.7 hPa WNW 7.2 km/h 14.5 km/h 78% 0 mm 95 W/m2
19:09 21.3 °C 17.3 °C 1010.7 hPa WNW 5.8 km/h 14.5 km/h 78.4% 0 mm 84 W/m2
19:14 21.2 °C 17.3 °C 1010.7 hPa WNW 8.2 km/h 16.1 km/h 79% 0 mm 74 W/m2
19:19 21.1 °C 17.5 °C 1010.7 hPa WNW 8.4 km/h 14.5 km/h 80% 0 mm 65 W/m2
19:24 21 °C 17.4 °C 1010.7 hPa WNW 8.5 km/h 19.3 km/h 80% 0 mm 47 W/m2
19:29 20.8 °C 17.3 °C 1011.1 hPa WNW 9 km/h 17.7 km/h 80.2% 0 mm 40 W/m2
19:34 20.8 °C 17.3 °C 1011.1 hPa West 10 km/h 17.7 km/h 81% 0 mm 32 W/m2
19:39 20.6 °C 17.2 °C 1011.1 hPa WNW 11.7 km/h 19.3 km/h 81.4% 0 mm 23 W/m2
19:44 20.4 °C 17.2 °C 1011.1 hPa WNW 10.5 km/h 19.3 km/h 82% 0 mm 21 W/m2
19:49 20.2 °C 17.2 °C 1011.1 hPa West 10.9 km/h 16.1 km/h 82.8% 0 mm 18 W/m2
19:54 20.1 °C 17.1 °C 1011.4 hPa WNW 10.3 km/h 17.7 km/h 83% 0 mm 12 W/m2
19:59 20.2 °C 17.3 °C 1011.4 hPa WNW 7.1 km/h 12.9 km/h 84% 0 mm 9 W/m2
20:04 20.1 °C 17.3 °C 1011.1 hPa WNW 11.4 km/h 20.9 km/h 84% 0 mm 11 W/m2
20:09 19.9 °C 17.2 °C 1011.1 hPa WNW 8.7 km/h 20.9 km/h 84% 0 mm 9 W/m2
20:14 19.8 °C 17.1 °C 1011.4 hPa WNW 10.6 km/h 19.3 km/h 84.4% 0 mm 7 W/m2
20:19 19.7 °C 17.1 °C 1011.4 hPa WNW 13.2 km/h 22.5 km/h 85% 0 mm 7 W/m2
20:24 19.6 °C 17 °C 1011.4 hPa WNW 7.7 km/h 20.9 km/h 85% 0 mm 5 W/m2
20:29 19.5 °C 16.9 °C 1011.4 hPa WNW 10.9 km/h 17.7 km/h 85% 0 mm 0 W/m2
20:34 19.4 °C 16.8 °C 1011.4 hPa WNW 10 km/h 19.3 km/h 85% 0 mm 0 W/m2
20:39 19.3 °C 16.7 °C 1011.7 hPa WNW 12.7 km/h 22.5 km/h 85% 0 mm 0 W/m2
20:44 19.2 °C 16.6 °C 1011.7 hPa WNW 13.5 km/h 20.9 km/h 85% 0 mm 0 W/m2
20:49 19.1 °C 16.4 °C 1011.7 hPa NW 10.3 km/h 20.9 km/h 85% 0 mm 0 W/m2
20:54 18.9 °C 16.3 °C 1011.7 hPa West 8.5 km/h 19.3 km/h 85% 0 mm 0 W/m2
20:59 18.8 °C 16.3 °C 1011.7 hPa West 9.7 km/h 17.7 km/h 85% 0 mm 0 W/m2
21:04 18.7 °C 16.1 °C 1011.7 hPa WNW 12.1 km/h 20.9 km/h 85% 0 mm 0 W/m2
21:09 18.5 °C 15.9 °C 1011.7 hPa WNW 6.8 km/h 19.3 km/h 85% 0 mm 0 W/m2
21:14 18.4 °C 15.8 °C 1011.7 hPa WNW 10.9 km/h 17.7 km/h 85% 0 mm 0 W/m2
21:19 18.5 °C 15.9 °C 1012.4 hPa West 12.4 km/h 20.9 km/h 85% 0 mm 0 W/m2
21:24 18.4 °C 15.6 °C 1012.4 hPa West 8.4 km/h 22.5 km/h 84.2% 0 mm 0 W/m2
21:29 18.3 °C 15.5 °C 1012.4 hPa WNW 8 km/h 16.1 km/h 84% 0 mm 0 W/m2
21:34 18.3 °C 15.5 °C 1012.1 hPa WNW 7.2 km/h 12.9 km/h 84% 0 mm 0 W/m2
21:39 18.2 °C 15.5 °C 1012.1 hPa West 10.6 km/h 17.7 km/h 84% 0 mm 0 W/m2
21:44 18.1 °C 15.4 °C 1012.1 hPa WNW 9 km/h 11.3 km/h 84% 0 mm 0 W/m2
21:49 18.1 °C 15.4 °C 1012.1 hPa WNW 6 km/h 9.7 km/h 84% 0 mm 0 W/m2
21:54 18.1 °C 15.3 °C 1012.1 hPa WNW 8.4 km/h 16.1 km/h 83.4% 0 mm 0 W/m2
21:59 18 °C 15.1 °C 1012.1 hPa WNW 10.3 km/h 14.5 km/h 83% 0 mm 0 W/m2
22:04 17.9 °C 14.9 °C 1012.1 hPa WNW 11.3 km/h 19.3 km/h 82.4% 0 mm 0 W/m2
22:09 17.9 °C 14.8 °C 1012.4 hPa West 9.2 km/h 16.1 km/h 82% 0 mm 0 W/m2
22:14 17.9 °C 14.7 °C 1012.4 hPa WNW 6.4 km/h 14.5 km/h 81.2% 0 mm 0 W/m2
22:19 17.9 °C 14.6 °C 1012.4 hPa WNW 8 km/h 19.3 km/h 80.8% 0 mm 0 W/m2
22:24 17.8 °C 14.3 °C 1012.4 hPa WNW 11.6 km/h 24.1 km/h 80% 0 mm 0 W/m2
22:29 17.8 °C 14.2 °C 1012.8 hPa West 11.4 km/h 24.1 km/h 79.4% 0 mm 0 W/m2
22:34 17.8 °C 14.1 °C 1012.8 hPa WNW 10 km/h 20.9 km/h 79% 0 mm 0 W/m2
22:39 17.8 °C 14.1 °C 1012.8 hPa WNW 6.9 km/h 16.1 km/h 79% 0 mm 0 W/m2
22:43 17.8 °C 14.1 °C 1012.8 hPa West 8.4 km/h 14.5 km/h 79% 0 mm 0 W/m2
22:49 17.8 °C 14.1 °C 1012.8 hPa West 9.3 km/h 22.5 km/h 79.2% 0 mm 0 W/m2
22:54 17.7 °C 14.2 °C 1012.8 hPa West 8 km/h 19.3 km/h 80% 0 mm 0 W/m2
22:59 17.6 °C 14.3 °C 1012.8 hPa WNW 8.4 km/h 14.5 km/h 80.8% 0 mm 0 W/m2
23:04 17.6 °C 14.3 °C 1012.8 hPa WNW 11.3 km/h 22.5 km/h 81% 0 mm 0 W/m2
23:09 17.4 °C 14.1 °C 1012.8 hPa WNW 10 km/h 20.9 km/h 81% 0 mm 0 W/m2
23:14 17.3 °C 14.1 °C 1012.8 hPa WNW 11.9 km/h 16.1 km/h 81.2% 0 mm 0 W/m2
23:19 17.3 °C 14.2 °C 1012.8 hPa WNW 8 km/h 16.1 km/h 82% 0 mm 0 W/m2
23:23 17.2 °C 14.1 °C 1012.8 hPa WNW 9.2 km/h 14.5 km/h 82% 0 mm 0 W/m2
23:29 17 °C 14 °C 1012.8 hPa West 7.1 km/h 14.5 km/h 82.4% 0 mm 0 W/m2
23:34 16.8 °C 13.9 °C 1013.1 hPa West 7.6 km/h 14.5 km/h 83% 0 mm 0 W/m2
23:39 16.7 °C 13.9 °C 1013.1 hPa WNW 6.4 km/h 12.9 km/h 83.6% 0 mm 0 W/m2
23:44 16.7 °C 13.9 °C 1013.1 hPa WNW 6 km/h 14.5 km/h 84% 0 mm 0 W/m2
23:49 16.6 °C 13.9 °C 1012.8 hPa WNW 8.7 km/h 12.9 km/h 84.4% 0 mm 0 W/m2
23:54 16.5 °C 14 °C 1012.8 hPa WNW 8.9 km/h 16.1 km/h 85% 0 mm 0 W/m2
23:59 16.4 °C 13.9 °C 1012.8 hPa WNW 8 km/h 16.1 km/h 85% 0 mm 0 W/m2
Bath Spa Weather
Compliments of Weather Underground - 2 mb